sensor_id;sensor_type;location;lat;lon;timestamp;P1;durP1;ratioP1;P2;durP2;ratioP2
16286;SDS011;8251;53.568;10.018;2022-11-15T00:02:28;22.10;;;13.10;;
16286;SDS011;8251;53.568;10.018;2022-11-15T00:04:54;24.13;;;12.80;;
16286;SDS011;8251;53.568;10.018;2022-11-15T00:07:22;24.27;;;13.07;;
16286;SDS011;8251;53.568;10.018;2022-11-15T00:09:49;23.07;;;12.87;;
16286;SDS011;8251;53.568;10.018;2022-11-15T00:12:20;25.37;;;13.80;;
16286;SDS011;8251;53.568;10.018;2022-11-15T00:14:50;22.47;;;13.57;;
16286;SDS011;8251;53.568;10.018;2022-11-15T00:17:25;20.83;;;12.23;;
16286;SDS011;8251;53.568;10.018;2022-11-15T00:20:01;24.63;;;13.10;;
16286;SDS011;8251;53.568;10.018;2022-11-15T00:22:31;22.63;;;12.27;;
16286;SDS011;8251;53.568;10.018;2022-11-15T00:24:59;28.83;;;13.27;;
16286;SDS011;8251;53.568;10.018;2022-11-15T00:27:27;27.40;;;13.30;;
16286;SDS011;8251;53.568;10.018;2022-11-15T00:29:58;22.07;;;13.17;;
16286;SDS011;8251;53.568;10.018;2022-11-15T00:32:26;23.40;;;12.60;;
16286;SDS011;8251;53.568;10.018;2022-11-15T00:34:56;21.97;;;12.60;;
16286;SDS011;8251;53.568;10.018;2022-11-15T00:37:29;22.20;;;12.43;;
16286;SDS011;8251;53.568;10.018;2022-11-15T00:39:58;25.13;;;13.47;;
16286;SDS011;8251;53.568;10.018;2022-11-15T00:42:26;24.33;;;12.60;;
16286;SDS011;8251;53.568;10.018;2022-11-15T00:45:00;20.23;;;12.33;;
16286;SDS011;8251;53.568;10.018;2022-11-15T00:47:28;25.43;;;13.57;;
16286;SDS011;8251;53.568;10.018;2022-11-15T00:50:01;23.80;;;12.33;;
16286;SDS011;8251;53.568;10.018;2022-11-15T00:52:29;25.73;;;13.33;;
16286;SDS011;8251;53.568;10.018;2022-11-15T00:55:08;23.13;;;12.27;;
16286;SDS011;8251;53.568;10.018;2022-11-15T00:57:43;33.47;;;14.33;;
16286;SDS011;8251;53.568;10.018;2022-11-15T01:00:17;24.33;;;12.03;;
16286;SDS011;8251;53.568;10.018;2022-11-15T01:02:45;23.07;;;13.10;;
16286;SDS011;8251;53.568;10.018;2022-11-15T01:05:14;22.77;;;11.80;;
16286;SDS011;8251;53.568;10.018;2022-11-15T01:10:51;23.70;;;12.23;;
16286;SDS011;8251;53.568;10.018;2022-11-15T01:13:23;27.90;;;13.87;;
16286;SDS011;8251;53.568;10.018;2022-11-15T01:15:53;21.83;;;12.40;;
16286;SDS011;8251;53.568;10.018;2022-11-15T01:18:21;21.53;;;12.33;;
16286;SDS011;8251;53.568;10.018;2022-11-15T01:20:49;23.87;;;12.33;;
16286;SDS011;8251;53.568;10.018;2022-11-15T01:23:23;27.97;;;14.13;;
16286;SDS011;8251;53.568;10.018;2022-11-15T01:25:50;28.63;;;13.97;;
16286;SDS011;8251;53.568;10.018;2022-11-15T01:28:17;20.67;;;12.73;;
16286;SDS011;8251;53.568;10.018;2022-11-15T01:30:46;23.57;;;12.63;;
16286;SDS011;8251;53.568;10.018;2022-11-15T01:33:14;23.77;;;12.97;;
16286;SDS011;8251;53.568;10.018;2022-11-15T01:35:40;26.93;;;12.87;;
16286;SDS011;8251;53.568;10.018;2022-11-15T01:38:07;24.43;;;12.67;;
16286;SDS011;8251;53.568;10.018;2022-11-15T01:40:36;24.07;;;12.00;;
16286;SDS011;8251;53.568;10.018;2022-11-15T01:45:49;25.80;;;12.50;;
16286;SDS011;8251;53.568;10.018;2022-11-15T01:48:18;23.00;;;12.93;;
16286;SDS011;8251;53.568;10.018;2022-11-15T01:50:47;20.80;;;12.43;;
16286;SDS011;8251;53.568;10.018;2022-11-15T01:53:15;24.70;;;13.20;;
16286;SDS011;8251;53.568;10.018;2022-11-15T01:55:44;23.33;;;13.10;;
16286;SDS011;8251;53.568;10.018;2022-11-15T01:58:12;24.83;;;13.63;;
16286;SDS011;8251;53.568;10.018;2022-11-15T02:00:39;25.60;;;12.77;;
16286;SDS011;8251;53.568;10.018;2022-11-15T02:03:06;28.63;;;13.03;;
16286;SDS011;8251;53.568;10.018;2022-11-15T02:05:34;21.23;;;12.13;;
16286;SDS011;8251;53.568;10.018;2022-11-15T02:08:02;23.20;;;12.57;;
16286;SDS011;8251;53.568;10.018;2022-11-15T02:10:30;22.50;;;13.00;;
16286;SDS011;8251;53.568;10.018;2022-11-15T02:13:00;22.53;;;11.50;;
16286;SDS011;8251;53.568;10.018;2022-11-15T02:15:30;21.83;;;12.03;;
16286;SDS011;8251;53.568;10.018;2022-11-15T02:18:21;25.13;;;12.93;;
16286;SDS011;8251;53.568;10.018;2022-11-15T02:20:55;24.73;;;13.23;;
16286;SDS011;8251;53.568;10.018;2022-11-15T02:30:02;20.60;;;11.73;;
16286;SDS011;8251;53.568;10.018;2022-11-15T02:32:44;21.03;;;12.37;;
16286;SDS011;8251;53.568;10.018;2022-11-15T02:35:20;20.77;;;11.87;;
16286;SDS011;8251;53.568;10.018;2022-11-15T02:37:56;21.23;;;12.23;;
16286;SDS011;8251;53.568;10.018;2022-11-15T02:40:31;22.90;;;11.70;;
16286;SDS011;8251;53.568;10.018;2022-11-15T02:43:04;21.83;;;12.03;;
16286;SDS011;8251;53.568;10.018;2022-11-15T02:45:56;20.03;;;11.23;;
16286;SDS011;8251;53.568;10.018;2022-11-15T02:48:28;24.20;;;12.90;;
16286;SDS011;8251;53.568;10.018;2022-11-15T02:50:56;20.53;;;12.23;;
16286;SDS011;8251;53.568;10.018;2022-11-15T02:53:24;22.53;;;11.63;;
16286;SDS011;8251;53.568;10.018;2022-11-15T02:55:52;22.20;;;11.93;;
16286;SDS011;8251;53.568;10.018;2022-11-15T02:58:37;24.73;;;12.90;;
16286;SDS011;8251;53.568;10.018;2022-11-15T03:01:21;20.97;;;12.43;;
16286;SDS011;8251;53.568;10.018;2022-11-15T03:03:59;19.60;;;11.23;;
16286;SDS011;8251;53.568;10.018;2022-11-15T03:06:35;22.17;;;11.93;;
16286;SDS011;8251;53.568;10.018;2022-11-15T03:09:17;19.23;;;11.70;;
16286;SDS011;8251;53.568;10.018;2022-11-15T03:11:56;21.07;;;11.50;;
16286;SDS011;8251;53.568;10.018;2022-11-15T03:14:28;18.53;;;11.13;;
16286;SDS011;8251;53.568;10.018;2022-11-15T03:17:02;19.90;;;11.20;;
16286;SDS011;8251;53.568;10.018;2022-11-15T03:19:38;19.47;;;11.27;;
16286;SDS011;8251;53.568;10.018;2022-11-15T03:22:10;19.47;;;11.30;;
16286;SDS011;8251;53.568;10.018;2022-11-15T03:24:39;19.47;;;11.13;;
16286;SDS011;8251;53.568;10.018;2022-11-15T03:27:08;24.70;;;11.63;;
16286;SDS011;8251;53.568;10.018;2022-11-15T03:29:37;20.57;;;11.13;;
16286;SDS011;8251;53.568;10.018;2022-11-15T03:32:11;22.03;;;11.00;;
16286;SDS011;8251;53.568;10.018;2022-11-15T03:34:46;21.93;;;11.63;;
16286;SDS011;8251;53.568;10.018;2022-11-15T03:37:22;19.77;;;11.67;;
16286;SDS011;8251;53.568;10.018;2022-11-15T03:43:14;21.10;;;11.63;;
16286;SDS011;8251;53.568;10.018;2022-11-15T03:49:04;17.23;;;9.97;;
16286;SDS011;8251;53.568;10.018;2022-11-15T03:51:35;17.77;;;10.87;;
16286;SDS011;8251;53.568;10.018;2022-11-15T03:54:02;18.80;;;11.03;;
16286;SDS011;8251;53.568;10.018;2022-11-15T03:56:42;18.67;;;10.60;;
16286;SDS011;8251;53.568;10.018;2022-11-15T03:59:09;18.77;;;10.67;;
16286;SDS011;8251;53.568;10.018;2022-11-15T04:01:36;20.53;;;11.10;;
16286;SDS011;8251;53.568;10.018;2022-11-15T04:04:07;17.83;;;9.97;;
16286;SDS011;8251;53.568;10.018;2022-11-15T04:06:34;17.30;;;10.10;;
16286;SDS011;8251;53.568;10.018;2022-11-15T04:09:01;17.47;;;9.93;;
16286;SDS011;8251;53.568;10.018;2022-11-15T04:11:28;18.53;;;10.37;;
16286;SDS011;8251;53.568;10.018;2022-11-15T04:13:55;17.87;;;9.77;;
16286;SDS011;8251;53.568;10.018;2022-11-15T04:16:22;15.97;;;10.17;;
16286;SDS011;8251;53.568;10.018;2022-11-15T04:18:49;16.07;;;10.03;;
16286;SDS011;8251;53.568;10.018;2022-11-15T04:21:37;17.97;;;9.53;;
16286;SDS011;8251;53.568;10.018;2022-11-15T04:24:22;19.97;;;10.70;;
16286;SDS011;8251;53.568;10.018;2022-11-15T04:26:49;17.03;;;9.60;;
16286;SDS011;8251;53.568;10.018;2022-11-15T04:29:16;16.90;;;9.87;;
16286;SDS011;8251;53.568;10.018;2022-11-15T04:32:01;16.00;;;9.77;;
16286;SDS011;8251;53.568;10.018;2022-11-15T04:34:28;14.43;;;9.90;;
16286;SDS011;8251;53.568;10.018;2022-11-15T04:36:57;15.90;;;9.47;;
16286;SDS011;8251;53.568;10.018;2022-11-15T04:39:41;19.97;;;10.03;;
16286;SDS011;8251;53.568;10.018;2022-11-15T04:42:08;17.23;;;10.23;;
16286;SDS011;8251;53.568;10.018;2022-11-15T04:44:36;15.30;;;9.90;;
16286;SDS011;8251;53.568;10.018;2022-11-15T04:47:03;17.03;;;10.63;;
16286;SDS011;8251;53.568;10.018;2022-11-15T04:49:31;16.17;;;9.67;;
16286;SDS011;8251;53.568;10.018;2022-11-15T04:51:59;15.90;;;9.43;;
16286;SDS011;8251;53.568;10.018;2022-11-15T04:54:26;17.70;;;9.80;;
16286;SDS011;8251;53.568;10.018;2022-11-15T04:56:58;21.30;;;9.77;;
16286;SDS011;8251;53.568;10.018;2022-11-15T04:59:26;19.33;;;9.53;;
16286;SDS011;8251;53.568;10.018;2022-11-15T05:02:14;20.67;;;10.53;;
16286;SDS011;8251;53.568;10.018;2022-11-15T05:04:41;16.47;;;9.80;;
16286;SDS011;8251;53.568;10.018;2022-11-15T05:07:08;19.20;;;10.90;;
16286;SDS011;8251;53.568;10.018;2022-11-15T05:09:35;17.20;;;9.73;;
16286;SDS011;8251;53.568;10.018;2022-11-15T05:12:02;20.97;;;10.23;;
16286;SDS011;8251;53.568;10.018;2022-11-15T05:14:32;17.73;;;9.83;;
16286;SDS011;8251;53.568;10.018;2022-11-15T05:17:00;15.80;;;9.40;;
16286;SDS011;8251;53.568;10.018;2022-11-15T05:19:29;17.00;;;9.23;;
16286;SDS011;8251;53.568;10.018;2022-11-15T05:22:00;19.13;;;9.77;;
16286;SDS011;8251;53.568;10.018;2022-11-15T05:24:28;17.90;;;9.63;;
16286;SDS011;8251;53.568;10.018;2022-11-15T05:26:57;22.00;;;9.27;;
16286;SDS011;8251;53.568;10.018;2022-11-15T05:29:23;16.07;;;9.33;;
16286;SDS011;8251;53.568;10.018;2022-11-15T05:31:58;25.60;;;9.73;;
16286;SDS011;8251;53.568;10.018;2022-11-15T05:34:31;15.77;;;9.67;;
16286;SDS011;8251;53.568;10.018;2022-11-15T05:36:58;16.57;;;9.00;;
16286;SDS011;8251;53.568;10.018;2022-11-15T05:39:33;18.37;;;10.30;;
16286;SDS011;8251;53.568;10.018;2022-11-15T05:42:10;17.83;;;9.10;;
16286;SDS011;8251;53.568;10.018;2022-11-15T05:44:40;15.17;;;9.33;;
16286;SDS011;8251;53.568;10.018;2022-11-15T05:47:10;23.00;;;9.13;;
16286;SDS011;8251;53.568;10.018;2022-11-15T05:49:40;17.43;;;9.63;;
16286;SDS011;8251;53.568;10.018;2022-11-15T05:52:09;18.73;;;9.07;;
16286;SDS011;8251;53.568;10.018;2022-11-15T05:54:41;15.80;;;8.13;;
16286;SDS011;8251;53.568;10.018;2022-11-15T05:57:09;18.67;;;8.93;;
16286;SDS011;8251;53.568;10.018;2022-11-15T05:59:36;14.23;;;8.37;;
16286;SDS011;8251;53.568;10.018;2022-11-15T06:02:15;12.90;;;8.07;;
16286;SDS011;8251;53.568;10.018;2022-11-15T06:04:42;11.93;;;7.67;;
16286;SDS011;8251;53.568;10.018;2022-11-15T06:07:09;17.30;;;8.70;;
16286;SDS011;8251;53.568;10.018;2022-11-15T06:09:39;15.77;;;8.83;;
16286;SDS011;8251;53.568;10.018;2022-11-15T06:12:08;16.53;;;8.33;;
16286;SDS011;8251;53.568;10.018;2022-11-15T06:14:35;14.73;;;8.17;;
16286;SDS011;8251;53.568;10.018;2022-11-15T06:17:05;15.43;;;8.23;;
16286;SDS011;8251;53.568;10.018;2022-11-15T06:19:32;13.17;;;8.43;;
16286;SDS011;8251;53.568;10.018;2022-11-15T06:22:02;15.60;;;8.87;;
16286;SDS011;8251;53.568;10.018;2022-11-15T06:24:36;12.83;;;7.87;;
16286;SDS011;8251;53.568;10.018;2022-11-15T06:27:11;17.63;;;8.57;;
16286;SDS011;8251;53.568;10.018;2022-11-15T06:29:38;17.83;;;8.70;;
16286;SDS011;8251;53.568;10.018;2022-11-15T06:32:05;14.27;;;8.60;;
16286;SDS011;8251;53.568;10.018;2022-11-15T06:34:34;12.10;;;8.03;;
16286;SDS011;8251;53.568;10.018;2022-11-15T06:37:07;14.03;;;8.37;;
16286;SDS011;8251;53.568;10.018;2022-11-15T06:39:37;16.70;;;8.63;;
16286;SDS011;8251;53.568;10.018;2022-11-15T06:42:07;21.40;;;9.93;;
16286;SDS011;8251;53.568;10.018;2022-11-15T06:44:38;14.33;;;8.77;;
16286;SDS011;8251;53.568;10.018;2022-11-15T06:47:05;13.60;;;8.53;;
16286;SDS011;8251;53.568;10.018;2022-11-15T06:49:38;12.67;;;8.20;;
16286;SDS011;8251;53.568;10.018;2022-11-15T06:52:05;13.67;;;7.83;;
16286;SDS011;8251;53.568;10.018;2022-11-15T06:54:35;18.87;;;8.40;;
16286;SDS011;8251;53.568;10.018;2022-11-15T06:57:03;16.00;;;8.23;;
16286;SDS011;8251;53.568;10.018;2022-11-15T06:59:30;14.30;;;9.10;;
16286;SDS011;8251;53.568;10.018;2022-11-15T07:01:59;14.53;;;8.83;;
16286;SDS011;8251;53.568;10.018;2022-11-15T07:04:26;16.33;;;8.40;;
16286;SDS011;8251;53.568;10.018;2022-11-15T07:06:53;15.47;;;8.73;;
16286;SDS011;8251;53.568;10.018;2022-11-15T07:09:20;16.53;;;8.73;;
16286;SDS011;8251;53.568;10.018;2022-11-15T07:11:47;17.37;;;9.13;;
16286;SDS011;8251;53.568;10.018;2022-11-15T07:14:14;14.70;;;8.33;;
16286;SDS011;8251;53.568;10.018;2022-11-15T07:16:41;17.60;;;8.93;;
16286;SDS011;8251;53.568;10.018;2022-11-15T07:19:10;16.70;;;9.03;;
16286;SDS011;8251;53.568;10.018;2022-11-15T07:21:37;17.87;;;9.20;;
16286;SDS011;8251;53.568;10.018;2022-11-15T07:24:08;18.30;;;8.97;;
16286;SDS011;8251;53.568;10.018;2022-11-15T07:26:53;19.37;;;9.17;;
16286;SDS011;8251;53.568;10.018;2022-11-15T07:29:27;12.10;;;7.83;;
16286;SDS011;8251;53.568;10.018;2022-11-15T07:31:59;15.40;;;8.47;;
16286;SDS011;8251;53.568;10.018;2022-11-15T07:34:27;16.33;;;9.67;;
16286;SDS011;8251;53.568;10.018;2022-11-15T07:36:54;16.37;;;9.17;;
16286;SDS011;8251;53.568;10.018;2022-11-15T07:39:22;18.27;;;9.27;;
16286;SDS011;8251;53.568;10.018;2022-11-15T07:41:49;13.80;;;8.40;;
16286;SDS011;8251;53.568;10.018;2022-11-15T07:44:36;19.47;;;10.30;;
16286;SDS011;8251;53.568;10.018;2022-11-15T07:47:03;16.17;;;8.23;;
16286;SDS011;8251;53.568;10.018;2022-11-15T07:49:31;15.77;;;8.60;;
16286;SDS011;8251;53.568;10.018;2022-11-15T07:51:58;14.63;;;8.63;;
16286;SDS011;8251;53.568;10.018;2022-11-15T07:54:25;12.83;;;8.00;;
16286;SDS011;8251;53.568;10.018;2022-11-15T07:56:52;14.30;;;8.37;;
16286;SDS011;8251;53.568;10.018;2022-11-15T07:59:22;19.50;;;9.37;;
16286;SDS011;8251;53.568;10.018;2022-11-15T08:01:50;17.97;;;8.43;;
16286;SDS011;8251;53.568;10.018;2022-11-15T08:04:20;17.70;;;9.37;;
16286;SDS011;8251;53.568;10.018;2022-11-15T08:06:55;14.87;;;9.17;;
16286;SDS011;8251;53.568;10.018;2022-11-15T08:09:32;15.10;;;8.03;;
16286;SDS011;8251;53.568;10.018;2022-11-15T08:11:59;17.83;;;8.70;;
16286;SDS011;8251;53.568;10.018;2022-11-15T08:14:25;17.20;;;9.00;;
16286;SDS011;8251;53.568;10.018;2022-11-15T08:16:53;14.47;;;8.80;;
16286;SDS011;8251;53.568;10.018;2022-11-15T08:19:21;13.00;;;7.87;;
16286;SDS011;8251;53.568;10.018;2022-11-15T08:21:48;14.53;;;8.33;;
16286;SDS011;8251;53.568;10.018;2022-11-15T08:24:27;16.17;;;9.40;;
16286;SDS011;8251;53.568;10.018;2022-11-15T08:27:06;14.27;;;8.40;;
16286;SDS011;8251;53.568;10.018;2022-11-15T08:29:42;13.50;;;8.33;;
16286;SDS011;8251;53.568;10.018;2022-11-15T08:32:19;15.03;;;8.20;;
16286;SDS011;8251;53.568;10.018;2022-11-15T08:34:45;15.80;;;8.23;;
16286;SDS011;8251;53.568;10.018;2022-11-15T08:37:12;16.67;;;8.30;;
16286;SDS011;8251;53.568;10.018;2022-11-15T08:39:43;19.33;;;8.17;;
16286;SDS011;8251;53.568;10.018;2022-11-15T08:42:10;25.93;;;9.17;;
16286;SDS011;8251;53.568;10.018;2022-11-15T08:44:38;16.20;;;8.50;;
16286;SDS011;8251;53.568;10.018;2022-11-15T08:47:07;16.47;;;8.37;;
16286;SDS011;8251;53.568;10.018;2022-11-15T08:49:37;17.47;;;8.70;;
16286;SDS011;8251;53.568;10.018;2022-11-15T08:52:04;15.80;;;8.60;;
16286;SDS011;8251;53.568;10.018;2022-11-15T08:54:31;19.23;;;8.63;;
16286;SDS011;8251;53.568;10.018;2022-11-15T08:57:00;13.37;;;8.03;;
16286;SDS011;8251;53.568;10.018;2022-11-15T08:59:30;11.73;;;7.63;;
16286;SDS011;8251;53.568;10.018;2022-11-15T09:01:57;13.23;;;7.40;;
16286;SDS011;8251;53.568;10.018;2022-11-15T09:04:24;14.30;;;7.60;;
16286;SDS011;8251;53.568;10.018;2022-11-15T09:06:52;16.17;;;8.47;;
16286;SDS011;8251;53.568;10.018;2022-11-15T09:16:10;16.10;;;7.67;;
16286;SDS011;8251;53.568;10.018;2022-11-15T09:18:40;17.10;;;7.60;;
16286;SDS011;8251;53.568;10.018;2022-11-15T09:21:08;18.07;;;9.03;;
16286;SDS011;8251;53.568;10.018;2022-11-15T09:23:35;15.00;;;8.10;;
16286;SDS011;8251;53.568;10.018;2022-11-15T09:26:03;14.53;;;9.00;;
16286;SDS011;8251;53.568;10.018;2022-11-15T09:28:31;12.73;;;7.43;;
16286;SDS011;8251;53.568;10.018;2022-11-15T09:30:59;12.70;;;7.77;;
16286;SDS011;8251;53.568;10.018;2022-11-15T09:33:40;19.33;;;8.17;;
16286;SDS011;8251;53.568;10.018;2022-11-15T09:36:10;14.70;;;8.77;;
16286;SDS011;8251;53.568;10.018;2022-11-15T09:38:38;12.47;;;7.83;;
16286;SDS011;8251;53.568;10.018;2022-11-15T09:41:18;13.73;;;7.43;;
16286;SDS011;8251;53.568;10.018;2022-11-15T09:44:04;13.40;;;8.03;;
16286;SDS011;8251;53.568;10.018;2022-11-15T09:46:44;14.13;;;6.83;;
16286;SDS011;8251;53.568;10.018;2022-11-15T09:49:24;17.67;;;7.50;;
16286;SDS011;8251;53.568;10.018;2022-11-15T09:51:52;15.83;;;8.53;;
16286;SDS011;8251;53.568;10.018;2022-11-15T09:54:28;13.10;;;8.33;;
16286;SDS011;8251;53.568;10.018;2022-11-15T09:57:06;14.77;;;8.83;;
16286;SDS011;8251;53.568;10.018;2022-11-15T09:59:40;13.33;;;7.63;;
16286;SDS011;8251;53.568;10.018;2022-11-15T10:02:33;14.93;;;8.13;;
16286;SDS011;8251;53.568;10.018;2022-11-15T10:05:14;11.40;;;7.43;;
16286;SDS011;8251;53.568;10.018;2022-11-15T10:07:46;12.47;;;7.40;;
16286;SDS011;8251;53.568;10.018;2022-11-15T10:10:20;13.57;;;7.23;;
16286;SDS011;8251;53.568;10.018;2022-11-15T10:13:01;15.47;;;7.83;;
16286;SDS011;8251;53.568;10.018;2022-11-15T10:15:31;14.40;;;7.27;;
16286;SDS011;8251;53.568;10.018;2022-11-15T10:18:03;13.83;;;7.20;;
16286;SDS011;8251;53.568;10.018;2022-11-15T10:20:42;11.40;;;6.67;;
16286;SDS011;8251;53.568;10.018;2022-11-15T10:23:20;11.80;;;7.37;;
16286;SDS011;8251;53.568;10.018;2022-11-15T10:25:50;11.30;;;6.80;;
16286;SDS011;8251;53.568;10.018;2022-11-15T10:28:21;10.10;;;6.37;;
16286;SDS011;8251;53.568;10.018;2022-11-15T10:30:56;8.13;;;6.13;;
16286;SDS011;8251;53.568;10.018;2022-11-15T10:33:31;12.40;;;7.20;;
16286;SDS011;8251;53.568;10.018;2022-11-15T10:36:20;11.20;;;6.57;;
16286;SDS011;8251;53.568;10.018;2022-11-15T10:38:54;11.80;;;7.30;;
16286;SDS011;8251;53.568;10.018;2022-11-15T10:41:38;10.67;;;6.23;;
16286;SDS011;8251;53.568;10.018;2022-11-15T10:44:11;12.40;;;7.00;;
16286;SDS011;8251;53.568;10.018;2022-11-15T10:47:04;15.20;;;7.23;;
16286;SDS011;8251;53.568;10.018;2022-11-15T10:49:52;13.23;;;6.63;;
16286;SDS011;8251;53.568;10.018;2022-11-15T10:52:35;11.10;;;6.40;;
16286;SDS011;8251;53.568;10.018;2022-11-15T10:55:19;13.30;;;7.33;;
16286;SDS011;8251;53.568;10.018;2022-11-15T10:57:50;10.70;;;6.97;;
16286;SDS011;8251;53.568;10.018;2022-11-15T11:00:26;10.43;;;6.53;;
16286;SDS011;8251;53.568;10.018;2022-11-15T11:02:58;10.63;;;6.83;;
16286;SDS011;8251;53.568;10.018;2022-11-15T11:05:31;9.97;;;7.20;;
16286;SDS011;8251;53.568;10.018;2022-11-15T11:08:02;11.73;;;6.00;;
16286;SDS011;8251;53.568;10.018;2022-11-15T11:10:33;10.00;;;6.63;;
16286;SDS011;8251;53.568;10.018;2022-11-15T11:13:13;11.07;;;6.60;;
16286;SDS011;8251;53.568;10.018;2022-11-15T11:15:44;10.63;;;6.80;;
16286;SDS011;8251;53.568;10.018;2022-11-15T11:18:23;14.30;;;6.60;;
16286;SDS011;8251;53.568;10.018;2022-11-15T11:20:54;10.77;;;6.77;;
16286;SDS011;8251;53.568;10.018;2022-11-15T11:23:32;12.53;;;6.87;;
16286;SDS011;8251;53.568;10.018;2022-11-15T11:26:16;12.20;;;6.83;;
16286;SDS011;8251;53.568;10.018;2022-11-15T11:29:12;13.57;;;6.53;;
16286;SDS011;8251;53.568;10.018;2022-11-15T11:31:54;11.70;;;5.67;;
16286;SDS011;8251;53.568;10.018;2022-11-15T11:34:33;12.13;;;6.30;;
16286;SDS011;8251;53.568;10.018;2022-11-15T11:37:11;9.40;;;6.67;;
16286;SDS011;8251;53.568;10.018;2022-11-15T11:39:53;10.00;;;6.60;;
16286;SDS011;8251;53.568;10.018;2022-11-15T11:42:32;9.20;;;5.90;;
16286;SDS011;8251;53.568;10.018;2022-11-15T11:45:10;9.10;;;6.33;;
16286;SDS011;8251;53.568;10.018;2022-11-15T11:47:49;13.77;;;6.73;;
16286;SDS011;8251;53.568;10.018;2022-11-15T11:50:23;10.57;;;5.50;;
16286;SDS011;8251;53.568;10.018;2022-11-15T11:52:56;7.63;;;5.90;;
16286;SDS011;8251;53.568;10.018;2022-11-15T11:55:29;9.13;;;5.87;;
16286;SDS011;8251;53.568;10.018;2022-11-15T11:58:03;11.20;;;6.77;;
16286;SDS011;8251;53.568;10.018;2022-11-15T12:00:40;10.77;;;5.47;;
16286;SDS011;8251;53.568;10.018;2022-11-15T12:03:18;9.80;;;5.90;;
16286;SDS011;8251;53.568;10.018;2022-11-15T12:05:51;9.50;;;5.70;;
16286;SDS011;8251;53.568;10.018;2022-11-15T12:08:25;11.73;;;6.70;;
16286;SDS011;8251;53.568;10.018;2022-11-15T12:11:03;8.80;;;5.50;;
16286;SDS011;8251;53.568;10.018;2022-11-15T12:13:49;12.43;;;5.63;;
16286;SDS011;8251;53.568;10.018;2022-11-15T12:16:27;7.20;;;4.97;;
16286;SDS011;8251;53.568;10.018;2022-11-15T12:19:01;9.70;;;5.50;;
16286;SDS011;8251;53.568;10.018;2022-11-15T12:21:34;9.47;;;5.47;;
16286;SDS011;8251;53.568;10.018;2022-11-15T12:24:12;10.97;;;5.37;;
16286;SDS011;8251;53.568;10.018;2022-11-15T12:26:54;9.67;;;5.30;;
16286;SDS011;8251;53.568;10.018;2022-11-15T12:29:29;7.87;;;5.17;;
16286;SDS011;8251;53.568;10.018;2022-11-15T12:32:02;10.27;;;5.40;;
16286;SDS011;8251;53.568;10.018;2022-11-15T12:34:40;8.10;;;5.70;;
16286;SDS011;8251;53.568;10.018;2022-11-15T12:37:44;8.90;;;4.83;;
16286;SDS011;8251;53.568;10.018;2022-11-15T12:40:30;8.17;;;5.53;;
16286;SDS011;8251;53.568;10.018;2022-11-15T12:43:02;8.50;;;5.20;;
16286;SDS011;8251;53.568;10.018;2022-11-15T12:45:57;8.80;;;5.40;;
16286;SDS011;8251;53.568;10.018;2022-11-15T12:54:51;8.10;;;5.30;;
16286;SDS011;8251;53.568;10.018;2022-11-15T13:06:36;7.80;;;5.10;;
16286;SDS011;8251;53.568;10.018;2022-11-15T13:18:26;10.23;;;5.73;;
16286;SDS011;8251;53.568;10.018;2022-11-15T13:20:57;13.30;;;5.37;;
16286;SDS011;8251;53.568;10.018;2022-11-15T13:23:25;10.50;;;5.17;;
16286;SDS011;8251;53.568;10.018;2022-11-15T13:26:12;8.63;;;5.50;;
16286;SDS011;8251;53.568;10.018;2022-11-15T13:28:42;9.63;;;5.23;;
16286;SDS011;8251;53.568;10.018;2022-11-15T13:31:29;8.70;;;5.73;;
16286;SDS011;8251;53.568;10.018;2022-11-15T13:34:14;7.87;;;5.60;;
16286;SDS011;8251;53.568;10.018;2022-11-15T13:36:53;10.93;;;5.27;;
16286;SDS011;8251;53.568;10.018;2022-11-15T13:39:26;12.13;;;5.43;;
16286;SDS011;8251;53.568;10.018;2022-11-15T13:41:56;10.17;;;4.90;;
16286;SDS011;8251;53.568;10.018;2022-11-15T13:44:24;7.47;;;4.77;;
16286;SDS011;8251;53.568;10.018;2022-11-15T13:49:41;8.10;;;5.70;;
16286;SDS011;8251;53.568;10.018;2022-11-15T13:52:10;15.40;;;5.93;;
16286;SDS011;8251;53.568;10.018;2022-11-15T13:54:42;9.20;;;5.80;;
16286;SDS011;8251;53.568;10.018;2022-11-15T13:57:12;8.07;;;5.77;;
16286;SDS011;8251;53.568;10.018;2022-11-15T13:59:45;10.10;;;6.27;;
16286;SDS011;8251;53.568;10.018;2022-11-15T14:02:17;7.77;;;5.37;;
16286;SDS011;8251;53.568;10.018;2022-11-15T14:04:46;9.63;;;5.57;;
16286;SDS011;8251;53.568;10.018;2022-11-15T14:07:17;8.80;;;5.40;;
16286;SDS011;8251;53.568;10.018;2022-11-15T14:09:45;9.60;;;5.37;;
16286;SDS011;8251;53.568;10.018;2022-11-15T14:12:29;7.83;;;5.50;;
16286;SDS011;8251;53.568;10.018;2022-11-15T14:14:58;8.27;;;5.93;;
16286;SDS011;8251;53.568;10.018;2022-11-15T14:17:35;9.13;;;5.03;;
16286;SDS011;8251;53.568;10.018;2022-11-15T14:22:58;7.80;;;5.10;;
16286;SDS011;8251;53.568;10.018;2022-11-15T14:25:26;8.93;;;5.07;;
16286;SDS011;8251;53.568;10.018;2022-11-15T14:28:11;7.93;;;5.20;;
16286;SDS011;8251;53.568;10.018;2022-11-15T14:30:40;10.00;;;5.87;;
16286;SDS011;8251;53.568;10.018;2022-11-15T14:33:21;7.77;;;4.93;;
16286;SDS011;8251;53.568;10.018;2022-11-15T14:35:51;12.33;;;5.27;;
16286;SDS011;8251;53.568;10.018;2022-11-15T14:38:20;7.57;;;4.80;;
16286;SDS011;8251;53.568;10.018;2022-11-15T14:40:53;8.47;;;5.70;;
16286;SDS011;8251;53.568;10.018;2022-11-15T14:43:21;10.50;;;5.67;;
16286;SDS011;8251;53.568;10.018;2022-11-15T14:45:48;7.17;;;5.47;;
16286;SDS011;8251;53.568;10.018;2022-11-15T14:48:16;7.00;;;5.00;;
16286;SDS011;8251;53.568;10.018;2022-11-15T14:50:44;10.60;;;5.30;;
16286;SDS011;8251;53.568;10.018;2022-11-15T14:53:12;13.10;;;5.67;;
16286;SDS011;8251;53.568;10.018;2022-11-15T14:55:41;8.73;;;4.93;;
16286;SDS011;8251;53.568;10.018;2022-11-15T14:58:08;7.30;;;4.83;;
16286;SDS011;8251;53.568;10.018;2022-11-15T15:00:36;9.27;;;6.37;;
16286;SDS011;8251;53.568;10.018;2022-11-15T15:03:04;10.13;;;5.40;;
16286;SDS011;8251;53.568;10.018;2022-11-15T15:05:34;7.57;;;5.30;;
16286;SDS011;8251;53.568;10.018;2022-11-15T15:08:06;7.50;;;4.97;;
16286;SDS011;8251;53.568;10.018;2022-11-15T15:10:34;9.93;;;5.80;;
16286;SDS011;8251;53.568;10.018;2022-11-15T15:13:02;12.43;;;5.57;;
16286;SDS011;8251;53.568;10.018;2022-11-15T15:15:31;10.97;;;5.13;;
16286;SDS011;8251;53.568;10.018;2022-11-15T15:17:59;7.73;;;5.23;;
16286;SDS011;8251;53.568;10.018;2022-11-15T15:20:26;8.20;;;5.47;;
16286;SDS011;8251;53.568;10.018;2022-11-15T15:22:54;7.60;;;5.43;;
16286;SDS011;8251;53.568;10.018;2022-11-15T15:25:23;11.73;;;5.40;;
16286;SDS011;8251;53.568;10.018;2022-11-15T15:27:54;8.60;;;5.80;;
16286;SDS011;8251;53.568;10.018;2022-11-15T15:30:21;13.30;;;7.57;;
16286;SDS011;8251;53.568;10.018;2022-11-15T15:32:49;12.37;;;5.63;;
16286;SDS011;8251;53.568;10.018;2022-11-15T15:35:17;8.23;;;5.30;;
16286;SDS011;8251;53.568;10.018;2022-11-15T15:37:45;7.67;;;5.23;;
16286;SDS011;8251;53.568;10.018;2022-11-15T15:40:14;10.87;;;5.70;;
16286;SDS011;8251;53.568;10.018;2022-11-15T15:42:44;9.17;;;6.23;;
16286;SDS011;8251;53.568;10.018;2022-11-15T15:45:12;7.80;;;5.10;;
16286;SDS011;8251;53.568;10.018;2022-11-15T15:47:40;6.77;;;5.00;;
16286;SDS011;8251;53.568;10.018;2022-11-15T15:50:12;8.03;;;5.33;;
16286;SDS011;8251;53.568;10.018;2022-11-15T15:52:48;11.93;;;5.70;;
16286;SDS011;8251;53.568;10.018;2022-11-15T15:55:15;11.40;;;5.50;;
16286;SDS011;8251;53.568;10.018;2022-11-15T15:57:49;10.13;;;5.30;;
16286;SDS011;8251;53.568;10.018;2022-11-15T16:00:17;10.13;;;5.77;;